Retrouvez également nos données météorologiques sur:

UK Metoffice

Weather Underground

AWEKAS

Citizen Weather Observer Program (CWOP)



Rapports METAR à proximité

   
LFOJ - Montargis
Mise à jour: 31-05-2020 15:00
Ciel dégagé  
Ciel dégagé  
   Vent: ENE 33.3 km/h
Vent: ENE 33.3 km/h
Température: 22°C
Point de rosée: 5°C
Humidité: 33%
Pression atmosphérique: 1017 hPa
Visibilité: More than 10 km
Nébulosité: Ciel dégagé
LFOJ 311300Z AUTO 06018KT CAVOK 22/05 Q1017 NOSIG
LFOJ - Orléans
Mise à jour: 31-05-2020 15:00
Ciel dégagé  
Ciel dégagé  
   Vent: ENE 33.3 km/h
Vent: ENE 33.3 km/h
Température: 22°C
Point de rosée: 5°C
Humidité: 33%
Pression atmosphérique: 1017 hPa
Visibilité: More than 10 km
Nébulosité: Ciel dégagé
LFOJ 311300Z AUTO 06018KT CAVOK 22/05 Q1017 NOSIG
LFQB - Sens
Mise à jour: 31-05-2020 15:00
Ciel dégagé  
Ciel dégagé  
   Vent: NE 20.4 km/h<br />Gust to 20.4 km/h
Vent: NE 20.4 km/h
Gust to 20.4 km/h
Température: 22°C
Point de rosée: 6°C
Humidité: 36%
Pression atmosphérique: 1018 hPa
Visibilité: More than 10 km
Nébulosité: Ciel dégagé
LFQB 311300Z AUTO 04011G21KT 360V080 CAVOK 22/06 Q1018
LFQB - Auxerre
Mise à jour: 31-05-2020 15:00
Ciel dégagé  
Ciel dégagé  
   Vent: NE 20.4 km/h<br />Gust to 20.4 km/h
Vent: NE 20.4 km/h
Gust to 20.4 km/h
Température: 22°C
Point de rosée: 6°C
Humidité: 36%
Pression atmosphérique: 1018 hPa
Visibilité: More than 10 km
Nébulosité: Ciel dégagé
LFQB 311300Z AUTO 04011G21KT 360V080 CAVOK 22/06 Q1018
LFPO - Paris
Mise à jour: 31-05-2020 15:00
  
  
   Vent: ENE 24.1 km/h
Vent: ENE 24.1 km/h
Visibilité: More than 10 km
LFPO 311300Z AUTO 06013KT 030V130 9999 4700 NSC 23/06 Q1018 NOSIG
LFLX - Bourges
Mise à jour: 31-05-2020 15:00
Ciel dégagé  
Ciel dégagé  
   Vent: NE 22.2 km/h
Vent: NE 22.2 km/h
Température: 24°C
Point de rosée: 7°C
Humidité: 34%
Pression atmosphérique: 1015 hPa
Visibilité: More than 10 km
Nébulosité: Ciel dégagé
LFLX 311300Z AUTO 05012KT 020V090 CAVOK 24/07 Q1015 NOSIG

Original script by  Saratoga-weather.org Adapted for the template by  Weerstation Leuven